Portada
METAR-TAF:

METAR-TAF

Aeroports :

Shantou, Xina

latitud: 23-24N, longitud: 116-41E, altitud: 3 m

Observació

L'informe es va fer fa 31 minuts, a les 11:00 UTC
Vent 8 kt del Est/Sud-Est, variant entre Est i Sud-Est
Temperatura 18°C
Humitat 77%
Pressió 1020 hPa
Visibilitat 10 km o més
Cel cobert a una alçada de 3300 ft

METAR: ZGOW 271100Z 12004MPS 080V140 9999 OVC033 18/14 Q1020 NOSIG

Hora: 19:31 (11:31 UTC)

Pronòstic

L'informe es va fer fa 8 hores i 27 minuts, a les 03:04 UTC
Pronòstic vàlid del 27 a les 06 UTC al 28 a les 06 UTC
Vent 6 kt del Est/Sud-Est
Visibilitat: 6000 m
Escasses núvols a una alçada de 2000 ft
Cel ennuvolat a una alçada de 4000 ft

TAF: ZGOW 270304Z 2706/2806 11003MPS 6000 FEW020 BKN040 TX25/2806Z TN17/2722Z

Observacions i pronòstics meteorològics de més de 4000 aeroports (METAR i TAF).

Les estacions disponibles són els punts grocs i vermells al mapa.

Posi el ratolí al punt desitjat per veure el nom de l'estació.

Feu clic per veure les observacions i els pronòstics meteorològics.

Per canviar el mapa: feu clic els botons verds amb una creu de color negre per apropar; al botó verd amb un guió per allunyar la imatge; o en les fletxes verdes per a mapes adjacents.


METAR-TAF: